Ana Sayfa
METAR-TAF:

METAR-TAF

Havaalanları :

Adrian, Michigan, Amerika Birleşik Devletleri

Enlem: 41-52-04N, Boylam: 084-04-46W, yükseklik: 244 m

Güncel hava durumu gözlemi

Rapor saat 03:53 UTC de 42 dakika önce yapıldı.
Rüzgar batı/güneybatıdan 3 kt
Sıcaklık -7°C
Nem 86%
Basınç 1030 hPa
Görüş mesafesi: 16.1 km
Açık gökyüzü

METAR: KADG 220353Z AUTO 25003KT 10SM CLR M07/M09 A3043 RMK AO2 SLP321 T10721094

Saat: 23:35 (04:35 UTC)


TAF: eksik

4.000'den fazla havaalanı için hava durumu gözlemleri ve tahminleri (METAR ve TAF raporları).

Kullanılabilir istasyonlar harita üzerinde sarı ve kırmızı noktalarla gösterilir.

İstasyonun adını görmek için fareyi noktanın üzerinde gezdirin.

Sonrasında hava gözlem ve tahminlerini görmek için tıklayın.

Haritayı değiştirmek için: yaklaştırmak için siyah artı işaretli yeşil düğmeye ve uzaklaştırmak için de eksi işaretli düğmeye hızla tıklayın; bitişik haritalar için yeşil okları kullanın.


METAR-TAF: